sensor_id;sensor_type;location;lat;lon;timestamp;P1;durP1;ratioP1;P2;durP2;ratioP2
76656;SDS011;65576;47.714;9.414;2022-12-20T00:00:46;3.10;;;1.88;;
76656;SDS011;65576;47.714;9.414;2022-12-20T00:03:12;3.08;;;2.75;;
76656;SDS011;65576;47.714;9.414;2022-12-20T00:05:38;7.57;;;3.45;;
76656;SDS011;65576;47.714;9.414;2022-12-20T00:08:04;7.22;;;5.40;;
76656;SDS011;65576;47.714;9.414;2022-12-20T00:10:30;4.50;;;2.72;;
76656;SDS011;65576;47.714;9.414;2022-12-20T00:12:59;2.67;;;2.47;;
76656;SDS011;65576;47.714;9.414;2022-12-20T00:15:25;4.82;;;3.47;;
76656;SDS011;65576;47.714;9.414;2022-12-20T00:17:50;4.90;;;3.95;;
76656;SDS011;65576;47.714;9.414;2022-12-20T00:20:16;4.32;;;2.97;;
76656;SDS011;65576;47.714;9.414;2022-12-20T00:22:41;14.13;;;3.30;;
76656;SDS011;65576;47.714;9.414;2022-12-20T00:25:06;6.97;;;4.68;;
76656;SDS011;65576;47.714;9.414;2022-12-20T00:27:32;5.28;;;3.35;;
76656;SDS011;65576;47.714;9.414;2022-12-20T00:29:57;3.13;;;2.88;;
76656;SDS011;65576;47.714;9.414;2022-12-20T00:32:22;3.17;;;2.88;;
76656;SDS011;65576;47.714;9.414;2022-12-20T00:34:48;4.25;;;2.58;;
76656;SDS011;65576;47.714;9.414;2022-12-20T00:37:13;8.85;;;5.05;;
76656;SDS011;65576;47.714;9.414;2022-12-20T00:39:38;3.22;;;2.70;;
76656;SDS011;65576;47.714;9.414;2022-12-20T00:42:04;6.32;;;3.80;;
76656;SDS011;65576;47.714;9.414;2022-12-20T00:44:29;6.68;;;4.25;;
76656;SDS011;65576;47.714;9.414;2022-12-20T00:46:54;7.03;;;4.05;;
76656;SDS011;65576;47.714;9.414;2022-12-20T00:49:19;8.07;;;3.85;;
76656;SDS011;65576;47.714;9.414;2022-12-20T00:51:45;4.65;;;3.20;;
76656;SDS011;65576;47.714;9.414;2022-12-20T00:54:10;4.97;;;4.07;;
76656;SDS011;65576;47.714;9.414;2022-12-20T00:56:35;14.25;;;3.90;;
76656;SDS011;65576;47.714;9.414;2022-12-20T00:59:01;3.63;;;2.92;;
76656;SDS011;65576;47.714;9.414;2022-12-20T01:01:30;6.75;;;4.78;;
76656;SDS011;65576;47.714;9.414;2022-12-20T01:03:57;6.00;;;5.00;;
76656;SDS011;65576;47.714;9.414;2022-12-20T01:06:23;9.23;;;4.63;;
76656;SDS011;65576;47.714;9.414;2022-12-20T01:08:49;7.25;;;5.43;;
76656;SDS011;65576;47.714;9.414;2022-12-20T01:13:43;5.35;;;4.43;;
76656;SDS011;65576;47.714;9.414;2022-12-20T01:16:15;6.28;;;5.53;;
76656;SDS011;65576;47.714;9.414;2022-12-20T01:18:45;6.30;;;4.97;;
76656;SDS011;65576;47.714;9.414;2022-12-20T01:21:11;7.88;;;4.57;;
76656;SDS011;65576;47.714;9.414;2022-12-20T01:23:37;14.13;;;5.30;;
76656;SDS011;65576;47.714;9.414;2022-12-20T01:26:03;7.35;;;3.28;;
76656;SDS011;65576;47.714;9.414;2022-12-20T01:28:30;9.40;;;5.38;;
76656;SDS011;65576;47.714;9.414;2022-12-20T01:30:56;7.50;;;4.28;;
76656;SDS011;65576;47.714;9.414;2022-12-20T01:33:21;9.13;;;4.65;;
76656;SDS011;65576;47.714;9.414;2022-12-20T01:38:25;4.53;;;3.90;;
76656;SDS011;65576;47.714;9.414;2022-12-20T01:40:51;3.75;;;3.42;;
76656;SDS011;65576;47.714;9.414;2022-12-20T01:43:17;6.40;;;2.95;;
76656;SDS011;65576;47.714;9.414;2022-12-20T01:45:43;3.05;;;2.72;;
76656;SDS011;65576;47.714;9.414;2022-12-20T01:48:09;6.60;;;2.60;;
76656;SDS011;65576;47.714;9.414;2022-12-20T01:50:36;4.20;;;3.50;;
76656;SDS011;65576;47.714;9.414;2022-12-20T01:53:01;12.23;;;4.07;;
76656;SDS011;65576;47.714;9.414;2022-12-20T01:55:28;4.70;;;3.42;;
76656;SDS011;65576;47.714;9.414;2022-12-20T01:57:58;7.18;;;2.63;;
76656;SDS011;65576;47.714;9.414;2022-12-20T02:00:26;5.20;;;3.25;;
76656;SDS011;65576;47.714;9.414;2022-12-20T02:02:52;6.03;;;3.13;;
76656;SDS011;65576;47.714;9.414;2022-12-20T02:05:19;16.13;;;8.45;;
76656;SDS011;65576;47.714;9.414;2022-12-20T02:07:45;17.05;;;7.43;;
76656;SDS011;65576;47.714;9.414;2022-12-20T02:10:13;19.15;;;10.05;;
76656;SDS011;65576;47.714;9.414;2022-12-20T02:12:43;23.33;;;11.20;;
76656;SDS011;65576;47.714;9.414;2022-12-20T02:17:56;13.80;;;7.18;;
76656;SDS011;65576;47.714;9.414;2022-12-20T02:29:10;8.10;;;4.47;;
76656;SDS011;65576;47.714;9.414;2022-12-20T02:34:50;3.25;;;2.95;;
76656;SDS011;65576;47.714;9.414;2022-12-20T02:37:16;8.80;;;3.40;;
76656;SDS011;65576;47.714;9.414;2022-12-20T02:39:42;4.50;;;2.78;;
76656;SDS011;65576;47.714;9.414;2022-12-20T02:42:09;8.40;;;3.83;;
76656;SDS011;65576;47.714;9.414;2022-12-20T02:44:36;3.30;;;3.00;;
76656;SDS011;65576;47.714;9.414;2022-12-20T02:47:23;3.15;;;2.85;;
76656;SDS011;65576;47.714;9.414;2022-12-20T02:49:55;3.70;;;3.15;;
76656;SDS011;65576;47.714;9.414;2022-12-20T02:52:21;7.55;;;3.55;;
76656;SDS011;65576;47.714;9.414;2022-12-20T02:54:50;6.07;;;2.90;;
76656;SDS011;65576;47.714;9.414;2022-12-20T02:57:21;5.05;;;3.47;;
76656;SDS011;65576;47.714;9.414;2022-12-20T02:59:54;4.93;;;4.00;;
76656;SDS011;65576;47.714;9.414;2022-12-20T03:02:22;13.15;;;3.67;;
76656;SDS011;65576;47.714;9.414;2022-12-20T03:04:48;3.72;;;3.38;;
76656;SDS011;65576;47.714;9.414;2022-12-20T03:07:14;6.63;;;3.97;;
76656;SDS011;65576;47.714;9.414;2022-12-20T03:09:41;7.97;;;2.63;;
76656;SDS011;65576;47.714;9.414;2022-12-20T03:12:08;4.10;;;3.40;;
76656;SDS011;65576;47.714;9.414;2022-12-20T03:14:35;8.43;;;3.75;;
76656;SDS011;65576;47.714;9.414;2022-12-20T03:17:01;3.70;;;3.00;;
76656;SDS011;65576;47.714;9.414;2022-12-20T03:19:27;10.88;;;4.20;;
76656;SDS011;65576;47.714;9.414;2022-12-20T03:21:53;5.82;;;3.22;;
76656;SDS011;65576;47.714;9.414;2022-12-20T03:24:18;4.43;;;3.10;;
76656;SDS011;65576;47.714;9.414;2022-12-20T03:26:43;6.72;;;3.53;;
76656;SDS011;65576;47.714;9.414;2022-12-20T03:29:09;3.25;;;1.95;;
76656;SDS011;65576;47.714;9.414;2022-12-20T03:31:34;2.42;;;2.22;;
76656;SDS011;65576;47.714;9.414;2022-12-20T03:34:00;5.50;;;3.85;;
76656;SDS011;65576;47.714;9.414;2022-12-20T03:36:25;4.45;;;2.72;;
76656;SDS011;65576;47.714;9.414;2022-12-20T03:38:51;6.38;;;2.40;;
76656;SDS011;65576;47.714;9.414;2022-12-20T03:41:17;5.32;;;3.30;;
76656;SDS011;65576;47.714;9.414;2022-12-20T03:43:43;4.05;;;3.00;;
76656;SDS011;65576;47.714;9.414;2022-12-20T03:46:09;4.22;;;3.15;;
76656;SDS011;65576;47.714;9.414;2022-12-20T03:48:34;4.63;;;4.10;;
76656;SDS011;65576;47.714;9.414;2022-12-20T03:51:00;11.20;;;4.80;;
76656;SDS011;65576;47.714;9.414;2022-12-20T03:53:25;7.03;;;5.60;;
76656;SDS011;65576;47.714;9.414;2022-12-20T03:55:51;8.90;;;4.72;;
76656;SDS011;65576;47.714;9.414;2022-12-20T03:58:16;5.65;;;4.53;;
76656;SDS011;65576;47.714;9.414;2022-12-20T04:00:41;3.50;;;2.55;;
76656;SDS011;65576;47.714;9.414;2022-12-20T04:03:07;4.45;;;3.53;;
76656;SDS011;65576;47.714;9.414;2022-12-20T04:05:32;6.90;;;3.88;;
76656;SDS011;65576;47.714;9.414;2022-12-20T04:07:58;14.13;;;3.50;;
76656;SDS011;65576;47.714;9.414;2022-12-20T04:10:24;8.35;;;2.35;;
76656;SDS011;65576;47.714;9.414;2022-12-20T04:12:49;9.85;;;3.35;;
76656;SDS011;65576;47.714;9.414;2022-12-20T04:15:14;3.83;;;2.08;;
76656;SDS011;65576;47.714;9.414;2022-12-20T04:17:39;2.33;;;2.03;;
76656;SDS011;65576;47.714;9.414;2022-12-20T04:20:05;3.38;;;2.40;;
76656;SDS011;65576;47.714;9.414;2022-12-20T04:22:49;4.28;;;2.45;;
76656;SDS011;65576;47.714;9.414;2022-12-20T04:25:16;4.53;;;3.00;;
76656;SDS011;65576;47.714;9.414;2022-12-20T04:27:43;3.45;;;2.95;;
76656;SDS011;65576;47.714;9.414;2022-12-20T04:30:08;4.18;;;2.67;;
76656;SDS011;65576;47.714;9.414;2022-12-20T04:32:34;6.38;;;3.90;;
76656;SDS011;65576;47.714;9.414;2022-12-20T04:35:00;5.38;;;3.17;;
76656;SDS011;65576;47.714;9.414;2022-12-20T04:37:25;7.82;;;2.70;;
76656;SDS011;65576;47.714;9.414;2022-12-20T04:39:51;5.18;;;2.47;;
76656;SDS011;65576;47.714;9.414;2022-12-20T04:42:16;7.22;;;3.10;;
76656;SDS011;65576;47.714;9.414;2022-12-20T04:44:42;8.05;;;3.00;;
76656;SDS011;65576;47.714;9.414;2022-12-20T04:47:07;1.70;;;1.60;;
76656;SDS011;65576;47.714;9.414;2022-12-20T04:49:34;4.38;;;2.85;;
76656;SDS011;65576;47.714;9.414;2022-12-20T04:51:59;2.95;;;2.75;;
76656;SDS011;65576;47.714;9.414;2022-12-20T04:54:44;2.30;;;2.10;;
76656;SDS011;65576;47.714;9.414;2022-12-20T04:57:10;4.63;;;3.30;;
76656;SDS011;65576;47.714;9.414;2022-12-20T04:59:35;4.20;;;3.60;;
76656;SDS011;65576;47.714;9.414;2022-12-20T05:02:01;4.00;;;3.10;;
76656;SDS011;65576;47.714;9.414;2022-12-20T05:04:26;3.45;;;3.17;;
76656;SDS011;65576;47.714;9.414;2022-12-20T05:06:51;4.97;;;3.95;;
76656;SDS011;65576;47.714;9.414;2022-12-20T05:09:17;3.95;;;3.03;;
76656;SDS011;65576;47.714;9.414;2022-12-20T05:11:42;7.35;;;4.75;;
76656;SDS011;65576;47.714;9.414;2022-12-20T05:14:07;10.25;;;4.18;;
76656;SDS011;65576;47.714;9.414;2022-12-20T05:16:33;6.03;;;3.38;;
76656;SDS011;65576;47.714;9.414;2022-12-20T05:18:58;6.75;;;4.30;;
76656;SDS011;65576;47.714;9.414;2022-12-20T05:21:23;5.78;;;3.45;;
76656;SDS011;65576;47.714;9.414;2022-12-20T05:24:08;3.95;;;3.08;;
76656;SDS011;65576;47.714;9.414;2022-12-20T05:26:52;5.22;;;3.80;;
76656;SDS011;65576;47.714;9.414;2022-12-20T05:29:18;3.70;;;2.75;;
76656;SDS011;65576;47.714;9.414;2022-12-20T05:31:43;4.25;;;3.30;;
76656;SDS011;65576;47.714;9.414;2022-12-20T05:34:08;3.95;;;3.17;;
76656;SDS011;65576;47.714;9.414;2022-12-20T05:36:34;6.13;;;3.72;;
76656;SDS011;65576;47.714;9.414;2022-12-20T05:38:59;3.75;;;3.28;;
76656;SDS011;65576;47.714;9.414;2022-12-20T05:41:24;10.07;;;5.40;;
76656;SDS011;65576;47.714;9.414;2022-12-20T05:43:50;10.77;;;4.22;;
76656;SDS011;65576;47.714;9.414;2022-12-20T05:46:15;6.60;;;3.80;;
76656;SDS011;65576;47.714;9.414;2022-12-20T05:48:40;3.72;;;3.10;;
76656;SDS011;65576;47.714;9.414;2022-12-20T05:51:06;9.80;;;4.78;;
76656;SDS011;65576;47.714;9.414;2022-12-20T05:53:31;5.25;;;3.58;;
76656;SDS011;65576;47.714;9.414;2022-12-20T05:55:57;4.45;;;3.53;;
76656;SDS011;65576;47.714;9.414;2022-12-20T05:58:22;6.68;;;3.63;;
76656;SDS011;65576;47.714;9.414;2022-12-20T06:00:48;4.05;;;3.63;;
76656;SDS011;65576;47.714;9.414;2022-12-20T06:03:13;6.28;;;4.20;;
76656;SDS011;65576;47.714;9.414;2022-12-20T06:05:39;4.10;;;2.33;;
76656;SDS011;65576;47.714;9.414;2022-12-20T06:08:05;12.73;;;3.90;;
76656;SDS011;65576;47.714;9.414;2022-12-20T06:10:31;32.17;;;15.07;;
76656;SDS011;65576;47.714;9.414;2022-12-20T06:12:57;13.77;;;7.95;;
76656;SDS011;65576;47.714;9.414;2022-12-20T06:15:22;12.23;;;7.68;;
76656;SDS011;65576;47.714;9.414;2022-12-20T06:17:48;10.02;;;5.80;;
76656;SDS011;65576;47.714;9.414;2022-12-20T06:20:13;7.47;;;3.78;;
76656;SDS011;65576;47.714;9.414;2022-12-20T06:22:38;7.30;;;4.72;;
76656;SDS011;65576;47.714;9.414;2022-12-20T06:25:04;5.93;;;3.25;;
76656;SDS011;65576;47.714;9.414;2022-12-20T06:27:30;3.38;;;3.08;;
76656;SDS011;65576;47.714;9.414;2022-12-20T06:29:55;5.18;;;3.72;;
76656;SDS011;65576;47.714;9.414;2022-12-20T06:32:21;3.63;;;3.30;;
76656;SDS011;65576;47.714;9.414;2022-12-20T06:34:46;4.90;;;3.95;;
76656;SDS011;65576;47.714;9.414;2022-12-20T06:37:11;6.05;;;3.85;;
76656;SDS011;65576;47.714;9.414;2022-12-20T06:39:36;3.83;;;3.35;;
76656;SDS011;65576;47.714;9.414;2022-12-20T06:42:02;5.32;;;3.72;;
76656;SDS011;65576;47.714;9.414;2022-12-20T06:44:27;3.75;;;3.38;;
76656;SDS011;65576;47.714;9.414;2022-12-20T06:46:53;5.32;;;2.85;;
76656;SDS011;65576;47.714;9.414;2022-12-20T06:49:18;2.70;;;2.03;;
76656;SDS011;65576;47.714;9.414;2022-12-20T06:51:43;4.68;;;3.17;;
76656;SDS011;65576;47.714;9.414;2022-12-20T06:54:09;3.78;;;2.60;;
76656;SDS011;65576;47.714;9.414;2022-12-20T06:56:34;4.03;;;3.45;;
76656;SDS011;65576;47.714;9.414;2022-12-20T06:58:59;4.53;;;3.20;;
76656;SDS011;65576;47.714;9.414;2022-12-20T07:01:25;4.40;;;2.00;;
76656;SDS011;65576;47.714;9.414;2022-12-20T07:03:50;5.68;;;3.63;;
76656;SDS011;65576;47.714;9.414;2022-12-20T07:06:15;2.90;;;2.65;;
76656;SDS011;65576;47.714;9.414;2022-12-20T07:08:40;4.15;;;3.15;;
76656;SDS011;65576;47.714;9.414;2022-12-20T07:11:06;5.25;;;4.00;;
76656;SDS011;65576;47.714;9.414;2022-12-20T07:13:32;4.65;;;2.83;;
76656;SDS011;65576;47.714;9.414;2022-12-20T07:15:58;3.10;;;2.47;;
76656;SDS011;65576;47.714;9.414;2022-12-20T07:18:24;3.63;;;2.55;;
76656;SDS011;65576;47.714;9.414;2022-12-20T07:20:49;4.30;;;3.17;;
76656;SDS011;65576;47.714;9.414;2022-12-20T07:23:14;2.95;;;2.65;;
76656;SDS011;65576;47.714;9.414;2022-12-20T07:25:40;8.02;;;3.03;;
76656;SDS011;65576;47.714;9.414;2022-12-20T07:28:05;2.10;;;1.90;;
76656;SDS011;65576;47.714;9.414;2022-12-20T07:30:30;1.75;;;1.45;;
76656;SDS011;65576;47.714;9.414;2022-12-20T07:32:56;5.03;;;2.70;;
76656;SDS011;65576;47.714;9.414;2022-12-20T07:35:22;3.55;;;2.55;;
76656;SDS011;65576;47.714;9.414;2022-12-20T07:37:47;3.63;;;2.75;;
76656;SDS011;65576;47.714;9.414;2022-12-20T07:40:13;7.85;;;2.35;;
76656;SDS011;65576;47.714;9.414;2022-12-20T07:42:40;2.88;;;2.63;;
76656;SDS011;65576;47.714;9.414;2022-12-20T07:45:05;2.72;;;2.13;;
76656;SDS011;65576;47.714;9.414;2022-12-20T07:47:31;2.70;;;2.20;;
76656;SDS011;65576;47.714;9.414;2022-12-20T07:49:56;3.08;;;2.40;;
76656;SDS011;65576;47.714;9.414;2022-12-20T07:52:22;4.65;;;2.75;;
76656;SDS011;65576;47.714;9.414;2022-12-20T07:54:50;8.93;;;3.85;;
76656;SDS011;65576;47.714;9.414;2022-12-20T07:57:24;4.25;;;3.00;;
76656;SDS011;65576;47.714;9.414;2022-12-20T07:59:53;6.78;;;2.97;;
76656;SDS011;65576;47.714;9.414;2022-12-20T08:02:22;3.90;;;2.88;;
76656;SDS011;65576;47.714;9.414;2022-12-20T08:04:50;3.33;;;3.00;;
76656;SDS011;65576;47.714;9.414;2022-12-20T08:07:17;6.53;;;2.55;;
76656;SDS011;65576;47.714;9.414;2022-12-20T08:09:42;3.03;;;2.47;;
76656;SDS011;65576;47.714;9.414;2022-12-20T08:12:08;5.68;;;3.42;;
76656;SDS011;65576;47.714;9.414;2022-12-20T08:14:35;7.20;;;3.75;;
76656;SDS011;65576;47.714;9.414;2022-12-20T08:17:01;3.38;;;2.58;;
76656;SDS011;65576;47.714;9.414;2022-12-20T08:19:26;32.45;;;15.95;;
76656;SDS011;65576;47.714;9.414;2022-12-20T08:21:52;5.60;;;3.97;;
76656;SDS011;65576;47.714;9.414;2022-12-20T08:24:17;8.70;;;6.13;;
76656;SDS011;65576;47.714;9.414;2022-12-20T08:26:42;9.77;;;5.13;;
76656;SDS011;65576;47.714;9.414;2022-12-20T08:29:08;9.80;;;6.03;;
76656;SDS011;65576;47.714;9.414;2022-12-20T08:31:37;20.88;;;8.60;;
76656;SDS011;65576;47.714;9.414;2022-12-20T08:34:03;12.18;;;7.30;;
76656;SDS011;65576;47.714;9.414;2022-12-20T08:36:29;18.90;;;9.15;;
76656;SDS011;65576;47.714;9.414;2022-12-20T08:38:54;18.48;;;12.90;;
76656;SDS011;65576;47.714;9.414;2022-12-20T08:41:20;41.78;;;17.83;;
76656;SDS011;65576;47.714;9.414;2022-12-20T08:43:45;19.50;;;11.82;;
76656;SDS011;65576;47.714;9.414;2022-12-20T08:46:11;22.77;;;10.55;;
76656;SDS011;65576;47.714;9.414;2022-12-20T08:48:36;16.00;;;9.15;;
76656;SDS011;65576;47.714;9.414;2022-12-20T08:51:03;10.23;;;6.97;;
76656;SDS011;65576;47.714;9.414;2022-12-20T08:53:29;5.45;;;3.85;;
76656;SDS011;65576;47.714;9.414;2022-12-20T08:56:05;5.63;;;3.83;;
76656;SDS011;65576;47.714;9.414;2022-12-20T08:58:35;10.43;;;3.60;;
76656;SDS011;65576;47.714;9.414;2022-12-20T09:01:02;6.55;;;4.82;;
76656;SDS011;65576;47.714;9.414;2022-12-20T09:03:29;6.55;;;5.00;;
76656;SDS011;65576;47.714;9.414;2022-12-20T09:05:55;7.57;;;3.22;;
76656;SDS011;65576;47.714;9.414;2022-12-20T09:08:21;5.43;;;4.20;;
76656;SDS011;65576;47.714;9.414;2022-12-20T09:10:46;7.63;;;4.45;;
76656;SDS011;65576;47.714;9.414;2022-12-20T09:13:11;8.48;;;5.55;;
76656;SDS011;65576;47.714;9.414;2022-12-20T09:15:37;8.10;;;5.78;;
76656;SDS011;65576;47.714;9.414;2022-12-20T09:18:02;5.70;;;4.22;;
76656;SDS011;65576;47.714;9.414;2022-12-20T09:20:28;5.32;;;3.75;;
76656;SDS011;65576;47.714;9.414;2022-12-20T09:22:54;7.07;;;3.83;;
76656;SDS011;65576;47.714;9.414;2022-12-20T09:25:19;5.22;;;3.47;;
76656;SDS011;65576;47.714;9.414;2022-12-20T09:27:44;8.85;;;4.75;;
76656;SDS011;65576;47.714;9.414;2022-12-20T09:30:10;5.00;;;3.50;;
76656;SDS011;65576;47.714;9.414;2022-12-20T09:32:35;5.22;;;4.50;;
76656;SDS011;65576;47.714;9.414;2022-12-20T09:35:01;8.20;;;4.03;;
76656;SDS011;65576;47.714;9.414;2022-12-20T09:37:28;5.57;;;4.30;;
76656;SDS011;65576;47.714;9.414;2022-12-20T09:39:55;7.03;;;4.80;;
76656;SDS011;65576;47.714;9.414;2022-12-20T09:42:21;4.97;;;4.43;;
76656;SDS011;65576;47.714;9.414;2022-12-20T09:44:51;9.10;;;5.18;;
76656;SDS011;65576;47.714;9.414;2022-12-20T09:47:22;6.25;;;4.47;;
76656;SDS011;65576;47.714;9.414;2022-12-20T09:49:50;8.05;;;4.45;;
76656;SDS011;65576;47.714;9.414;2022-12-20T09:52:39;10.07;;;5.13;;
76656;SDS011;65576;47.714;9.414;2022-12-20T09:55:16;6.03;;;4.70;;
76656;SDS011;65576;47.714;9.414;2022-12-20T10:00:43;8.73;;;6.15;;
76656;SDS011;65576;47.714;9.414;2022-12-20T10:03:18;12.40;;;9.10;;
76656;SDS011;65576;47.714;9.414;2022-12-20T10:05:52;9.18;;;5.65;;
76656;SDS011;65576;47.714;9.414;2022-12-20T10:11:27;7.80;;;6.20;;
76656;SDS011;65576;47.714;9.414;2022-12-20T10:19:56;8.10;;;4.40;;
76656;SDS011;65576;47.714;9.414;2022-12-20T10:22:39;4.57;;;3.70;;
76656;SDS011;65576;47.714;9.414;2022-12-20T10:28:11;4.45;;;3.45;;
76656;SDS011;65576;47.714;9.414;2022-12-20T10:30:39;6.32;;;4.30;;
76656;SDS011;65576;47.714;9.414;2022-12-20T10:33:07;4.82;;;4.00;;
76656;SDS011;65576;47.714;9.414;2022-12-20T10:35:40;3.97;;;2.47;;
76656;SDS011;65576;47.714;9.414;2022-12-20T10:38:08;4.93;;;3.33;;
76656;SDS011;65576;47.714;9.414;2022-12-20T10:40:38;3.97;;;3.03;;
76656;SDS011;65576;47.714;9.414;2022-12-20T10:43:05;3.78;;;2.63;;
76656;SDS011;65576;47.714;9.414;2022-12-20T10:45:39;4.30;;;3.10;;
76656;SDS011;65576;47.714;9.414;2022-12-20T10:48:27;5.75;;;2.95;;
76656;SDS011;65576;47.714;9.414;2022-12-20T10:50:59;3.08;;;2.78;;
76656;SDS011;65576;47.714;9.414;2022-12-20T10:53:26;8.95;;;4.80;;
76656;SDS011;65576;47.714;9.414;2022-12-20T10:55:53;7.82;;;6.25;;
76656;SDS011;65576;47.714;9.414;2022-12-20T10:58:35;9.30;;;5.28;;
76656;SDS011;65576;47.714;9.414;2022-12-20T11:01:11;6.13;;;5.05;;
76656;SDS011;65576;47.714;9.414;2022-12-20T11:06:14;5.93;;;5.32;;
76656;SDS011;65576;47.714;9.414;2022-12-20T11:08:41;11.18;;;6.50;;
76656;SDS011;65576;47.714;9.414;2022-12-20T11:11:13;8.45;;;5.15;;
76656;SDS011;65576;47.714;9.414;2022-12-20T11:13:43;6.78;;;4.20;;
76656;SDS011;65576;47.714;9.414;2022-12-20T11:19:13;6.03;;;4.63;;
76656;SDS011;65576;47.714;9.414;2022-12-20T11:24:25;6.50;;;4.65;;
76656;SDS011;65576;47.714;9.414;2022-12-20T11:32:32;5.85;;;4.32;;
76656;SDS011;65576;47.714;9.414;2022-12-20T11:37:55;7.32;;;5.03;;
76656;SDS011;65576;47.714;9.414;2022-12-20T11:40:43;4.28;;;3.88;;
76656;SDS011;65576;47.714;9.414;2022-12-20T11:43:45;9.48;;;5.93;;
76656;SDS011;65576;47.714;9.414;2022-12-20T11:46:29;7.05;;;4.38;;
76656;SDS011;65576;47.714;9.414;2022-12-20T11:49:32;9.35;;;4.80;;
76656;SDS011;65576;47.714;9.414;2022-12-20T11:52:23;9.05;;;5.90;;
76656;SDS011;65576;47.714;9.414;2022-12-20T11:55:05;8.18;;;4.13;;
76656;SDS011;65576;47.714;9.414;2022-12-20T11:58:12;14.00;;;7.13;;
76656;SDS011;65576;47.714;9.414;2022-12-20T12:00:37;15.65;;;5.43;;
76656;SDS011;65576;47.714;9.414;2022-12-20T12:03:11;6.60;;;4.45;;
76656;SDS011;65576;47.714;9.414;2022-12-20T12:05:43;5.88;;;4.13;;
76656;SDS011;65576;47.714;9.414;2022-12-20T12:08:16;10.32;;;5.05;;
76656;SDS011;65576;47.714;9.414;2022-12-20T12:10:54;5.43;;;4.47;;
76656;SDS011;65576;47.714;9.414;2022-12-20T12:13:24;5.65;;;4.35;;
76656;SDS011;65576;47.714;9.414;2022-12-20T12:15:52;7.03;;;4.63;;
76656;SDS011;65576;47.714;9.414;2022-12-20T12:18:26;8.05;;;4.45;;
76656;SDS011;65576;47.714;9.414;2022-12-20T12:26:36;3.72;;;3.22;;
76656;SDS011;65576;47.714;9.414;2022-12-20T12:34:29;7.43;;;4.03;;
76656;SDS011;65576;47.714;9.414;2022-12-20T12:37:11;8.38;;;5.05;;
76656;SDS011;65576;47.714;9.414;2022-12-20T12:45:27;12.82;;;6.00;;
76656;SDS011;65576;47.714;9.414;2022-12-20T12:48:01;9.65;;;5.35;;
76656;SDS011;65576;47.714;9.414;2022-12-20T12:50:46;4.70;;;4.05;;
76656;SDS011;65576;47.714;9.414;2022-12-20T12:55:47;11.20;;;4.55;;
76656;SDS011;65576;47.714;9.414;2022-12-20T13:00:52;6.70;;;3.80;;
76656;SDS011;65576;47.714;9.414;2022-12-20T13:09:10;5.95;;;4.10;;
76656;SDS011;65576;47.714;9.414;2022-12-20T13:11:37;5.45;;;3.55;;
76656;SDS011;65576;47.714;9.414;2022-12-20T13:16:50;10.50;;;4.32;;
76656;SDS011;65576;47.714;9.414;2022-12-20T13:19:17;5.78;;;3.75;;
76656;SDS011;65576;47.714;9.414;2022-12-20T13:38:01;9.50;;;4.70;;
76656;SDS011;65576;47.714;9.414;2022-12-20T13:40:35;15.07;;;5.72;;
76656;SDS011;65576;47.714;9.414;2022-12-20T13:51:20;7.90;;;4.47;;
76656;SDS011;65576;47.714;9.414;2022-12-20T13:54:23;8.82;;;4.72;;
76656;SDS011;65576;47.714;9.414;2022-12-20T13:56:46;14.10;;;6.22;;
76656;SDS011;65576;47.714;9.414;2022-12-20T13:59:16;7.60;;;5.78;;
76656;SDS011;65576;47.714;9.414;2022-12-20T14:01:50;8.20;;;6.10;;
76656;SDS011;65576;47.714;9.414;2022-12-20T14:04:36;9.88;;;5.35;;
76656;SDS011;65576;47.714;9.414;2022-12-20T14:07:04;10.48;;;5.65;;
76656;SDS011;65576;47.714;9.414;2022-12-20T14:09:31;12.63;;;5.82;;
76656;SDS011;65576;47.714;9.414;2022-12-20T14:12:05;8.95;;;5.20;;
76656;SDS011;65576;47.714;9.414;2022-12-20T14:14:38;7.95;;;5.30;;
76656;SDS011;65576;47.714;9.414;2022-12-20T14:17:19;6.68;;;4.60;;
76656;SDS011;65576;47.714;9.414;2022-12-20T14:19:46;10.60;;;5.90;;
76656;SDS011;65576;47.714;9.414;2022-12-20T14:22:11;9.88;;;6.22;;
76656;SDS011;65576;47.714;9.414;2022-12-20T14:24:38;11.93;;;6.18;;
76656;SDS011;65576;47.714;9.414;2022-12-20T14:27:04;14.32;;;6.32;;
76656;SDS011;65576;47.714;9.414;2022-12-20T14:29:30;11.98;;;6.78;;
76656;SDS011;65576;47.714;9.414;2022-12-20T14:31:56;8.82;;;5.65;;
76656;SDS011;65576;47.714;9.414;2022-12-20T14:34:24;7.78;;;5.05;;
76656;SDS011;65576;47.714;9.414;2022-12-20T14:36:51;11.35;;;5.72;;
76656;SDS011;65576;47.714;9.414;2022-12-20T14:44:21;5.88;;;4.53;;
76656;SDS011;65576;47.714;9.414;2022-12-20T14:46:51;5.00;;;4.30;;
76656;SDS011;65576;47.714;9.414;2022-12-20T14:52:12;9.05;;;5.53;;
76656;SDS011;65576;47.714;9.414;2022-12-20T14:54:44;7.15;;;5.35;;
76656;SDS011;65576;47.714;9.414;2022-12-20T14:57:19;7.00;;;4.13;;
76656;SDS011;65576;47.714;9.414;2022-12-20T15:02:38;7.13;;;4.07;;
76656;SDS011;65576;47.714;9.414;2022-12-20T15:10:47;6.38;;;4.63;;
76656;SDS011;65576;47.714;9.414;2022-12-20T15:15:59;8.50;;;4.70;;
76656;SDS011;65576;47.714;9.414;2022-12-20T15:18:27;8.27;;;4.57;;
76656;SDS011;65576;47.714;9.414;2022-12-20T15:23:46;8.75;;;5.28;;
76656;SDS011;65576;47.714;9.414;2022-12-20T15:26:15;7.32;;;5.22;;
76656;SDS011;65576;47.714;9.414;2022-12-20T15:28:42;11.35;;;5.82;;
76656;SDS011;65576;47.714;9.414;2022-12-20T15:31:11;7.88;;;4.57;;
76656;SDS011;65576;47.714;9.414;2022-12-20T15:33:38;6.00;;;3.95;;
76656;SDS011;65576;47.714;9.414;2022-12-20T15:36:04;7.32;;;4.47;;
76656;SDS011;65576;47.714;9.414;2022-12-20T15:38:30;9.13;;;6.05;;
76656;SDS011;65576;47.714;9.414;2022-12-20T15:41:02;6.10;;;4.72;;
76656;SDS011;65576;47.714;9.414;2022-12-20T15:43:28;7.38;;;4.57;;
76656;SDS011;65576;47.714;9.414;2022-12-20T15:45:59;15.57;;;8.70;;
76656;SDS011;65576;47.714;9.414;2022-12-20T15:48:24;8.50;;;5.50;;
76656;SDS011;65576;47.714;9.414;2022-12-20T15:50:54;11.20;;;5.40;;
76656;SDS011;65576;47.714;9.414;2022-12-20T15:53:22;8.85;;;5.63;;
76656;SDS011;65576;47.714;9.414;2022-12-20T15:55:51;28.05;;;14.05;;
76656;SDS011;65576;47.714;9.414;2022-12-20T15:58:17;54.33;;;21.33;;
76656;SDS011;65576;47.714;9.414;2022-12-20T16:00:42;35.47;;;18.40;;
76656;SDS011;65576;47.714;9.414;2022-12-20T16:03:16;17.92;;;9.60;;
76656;SDS011;65576;47.714;9.414;2022-12-20T16:05:43;25.38;;;13.25;;
76656;SDS011;65576;47.714;9.414;2022-12-20T16:08:08;14.50;;;7.20;;
76656;SDS011;65576;47.714;9.414;2022-12-20T16:10:34;18.75;;;8.50;;
76656;SDS011;65576;47.714;9.414;2022-12-20T16:12:59;8.30;;;5.63;;
76656;SDS011;65576;47.714;9.414;2022-12-20T16:15:24;12.27;;;7.15;;
76656;SDS011;65576;47.714;9.414;2022-12-20T16:17:50;19.20;;;7.40;;
76656;SDS011;65576;47.714;9.414;2022-12-20T16:20:15;10.93;;;7.30;;
76656;SDS011;65576;47.714;9.414;2022-12-20T16:22:41;11.13;;;5.97;;
76656;SDS011;65576;47.714;9.414;2022-12-20T16:25:08;10.75;;;6.07;;
76656;SDS011;65576;47.714;9.414;2022-12-20T16:27:44;12.50;;;5.63;;
76656;SDS011;65576;47.714;9.414;2022-12-20T16:30:09;9.48;;;4.78;;
76656;SDS011;65576;47.714;9.414;2022-12-20T16:32:35;8.00;;;4.68;;
76656;SDS011;65576;47.714;9.414;2022-12-20T16:35:00;7.00;;;5.18;;
76656;SDS011;65576;47.714;9.414;2022-12-20T16:37:25;6.18;;;3.75;;
76656;SDS011;65576;47.714;9.414;2022-12-20T16:39:51;8.05;;;4.93;;
76656;SDS011;65576;47.714;9.414;2022-12-20T16:42:17;7.47;;;4.50;;
76656;SDS011;65576;47.714;9.414;2022-12-20T16:44:45;6.45;;;3.97;;
76656;SDS011;65576;47.714;9.414;2022-12-20T16:47:14;5.53;;;4.95;;
76656;SDS011;65576;47.714;9.414;2022-12-20T16:49:40;8.02;;;4.10;;
76656;SDS011;65576;47.714;9.414;2022-12-20T16:52:08;5.93;;;3.00;;
76656;SDS011;65576;47.714;9.414;2022-12-20T16:54:39;11.50;;;6.15;;
76656;SDS011;65576;47.714;9.414;2022-12-20T16:57:04;14.48;;;8.88;;
76656;SDS011;65576;47.714;9.414;2022-12-20T16:59:29;12.02;;;7.18;;